Metar Cercanos

 

LEPA - Palma De Mallorc, Spain
Distance from station: ONO 38km
Actualización: Mon, 25-Jan-2021 3:30pm CET
Few Clouds
Few Clouds
 Viento del O
Viento: O 17 km/h
Temperatura: 16°C
Rocío: 11°C
Humedad: 72%
Barómetro: 1008 hPa
Clouds: Few Clouds
Visibility: 10 km
Cloud details: Few Clouds 762 m
2021/01/25 14:30 LEPA 251430Z 26009KT 230V290 9999 FEW025 16/11 Q1008 NOSIG
LEMH - Mahon/Menorca Is, Spain
Distance from station: ENE 105km
Actualización: Mon, 25-Jan-2021 3:30pm CET
Lluvia débil, Parcialmente nuboso
Lluvia débil, Parcialmente nuboso
 Viento del O
Viento: O 7 km/h
Temperatura: 13°C
Rocío: 11°C
Humedad: 88%
Barómetro: 1008 hPa
Resumen: Lluvia débil
Clouds: Parcialmente nuboso
Visibility: 10 km
Cloud details: Parcialmente nuboso 914 m
2021/01/25 14:30 LEMH 251430Z 26004KT 230V300 9999 -RA SCT030 13/11 Q1008
 
LEIB - Ibiza/Es Codola, Spain
Distance from station: OSO 165km
Actualización: Mon, 25-Jan-2021 3:30pm CET
Few Clouds
Few Clouds
 Viento del OSO
Viento: OSO 26 km/h
Temperatura: 16°C
Rocío: 11°C
Humedad: 72%
Barómetro: 1009 hPa
Clouds: Few Clouds
Visibility: 10 km
Cloud details: Few Clouds 1219 m
2021/01/25 14:30 LEIB 251430Z 24014KT 9999 FEW040 16/11 Q1009 NOSIG
LEBL - Barcelona Airpor, Spain
Distance from station: NNO 225km
Actualización: Mon, 25-Jan-2021 3:30pm CET
Parcialmente nuboso
Parcialmente nuboso
 Viento del SO
Viento: SO 15 km/h
Temperatura: 14°C
Rocío: 9°C
Humedad: 72%
Barómetro: 1006 hPa
Clouds: Parcialmente nuboso
Visibility: 10 km
Cloud details: Few Clouds 1067 m
Parcialmente nuboso 1219 m
2021/01/25 14:30 LEBL 251430Z 23008KT 9999 FEW035 SCT040 14/09 Q1006 NOSIG
 
LEVC - Valencia (civ/Mi, Spain
Distance from station: NO 188km
Actualización: Mon, 25-Jan-2021 3:30pm CET
Muy nuboso
Muy nuboso
 Viento del OSO
Viento: OSO 43 km/h, Racha: 61 km/h
Temperatura: 20°C
Rocío: 11°C
Humedad: 56%
Barómetro: 1008 hPa
Clouds: Muy nuboso
Visibility: 10 km
Cloud details: Muy nuboso 1219 m
2021/01/25 14:30 LEVC 251430Z 25023G33KT 9999 BKN040 20/11 Q1008 NOSIG
LEGE - Gerona/Costa Bra, Spain
Distance from station: N 276km
Actualización: Mon, 25-Jan-2021 3:30pm CET
Muy nuboso
Muy nuboso
 Viento del ESE
Viento: ESE 11 km/h
Temperatura: 11°C
Rocío: 5°C
Humedad: 67%
Barómetro: 1008 hPa
Clouds: Muy nuboso
Visibility: 10 km
Cloud details: Few Clouds 914 m
Muy nuboso 1524 m
2021/01/25 14:30 LEGE 251430Z 12006KT 070V150 9999 FEW030 BKN050 11/05 Q1008
 
LEAL - Alicante/El Alte, Spain
Distance from station: OSO 344km
Actualización: Mon, 25-Jan-2021 3:30pm CET
Parcialmente nuboso
Parcialmente nuboso
 Viento del SSO
Viento: SSO 15 km/h
Temperatura: 20°C
Rocío: 8°C
Humedad: 46%
Barómetro: 1010 hPa
Clouds: Parcialmente nuboso
Visibility: 10 km
Cloud details: Few Clouds 1067 m
Parcialmente nuboso 1890 m
2021/01/25 14:30 LEAL 251430Z 21008KT 170V250 9999 FEW035 SCT062 20/08 Q1010 NOSIG
LEAM - Almeria Airport, Spain
Distance from station: SSO 56km
Actualización: Mon, 25-Jan-2021 3:30pm CET
Few Clouds
Few Clouds
 Viento del OSO
Viento: OSO 37 km/h
Temperatura: 17°C
Rocío: 13°C
Humedad: 77%
Barómetro: 1013 hPa
Clouds: Few Clouds
Visibility: 10 km
Cloud details: Few Clouds 1219 m
2021/01/25 14:30 LEAM 251430Z 24020KT 210V270 9999 FEW040 17/13 Q1013
 
LEZG - Zaragoza (mil/Ci, Spain
Distance from station: NO 431km
Actualización: Mon, 25-Jan-2021 3:30pm CET
Lluvia débil, Cubierto
Lluvia débil, Cubierto
 Viento del O
Viento: O 20 km/h
Temperatura: 9°C
Sensación frio: 6°C
Rocío: 8°C
Humedad: 94%
Barómetro: 1010 hPa
Resumen: Lluvia débil
Clouds: Cubierto
Visibility: 8 km
Cloud details: Parcialmente nuboso 366 m
Muy nuboso 1524 m
Cubierto 1829 m
2021/01/25 14:30 LEZG 251430Z 28011KT 8000 -RA SCT012 BKN050 OVC060 09/08 Q1010
LEMD - Madrid/Barajas, Spain
Distance from station: ONO 234km
Actualización: Mon, 25-Jan-2021 3:30pm CET
Muy nuboso
Muy nuboso
 Viento del OSO
Viento: OSO 26 km/h
Temperatura: 14°C
Rocío: 11°C
Humedad: 82%
Barómetro: 1011 hPa
Clouds: Muy nuboso
Visibility: 10 km
Cloud details: Parcialmente nuboso 457 m
Muy nuboso 1372 m
2021/01/25 14:30 LEMD 251430Z 24014KT 200V260 9999 SCT015 BKN045 14/11 Q1011 NOSIG
 
LEGR - Granada Airport, Spain
Distance from station: OSO 62km
Actualización: Mon, 25-Jan-2021 3:39pm CET
Lluvia débil, Drizzle, Muy nuboso
Lluvia débil, Drizzle, Muy nuboso
 Viento del varies
Viento: varies 4 km/h
Temperatura: 13°C
Rocío: 13°C
Humedad: 100%
Barómetro: 1018 hPa
Resumen: Lluvia débil, Drizzle
Clouds: Muy nuboso
Visibility: 4 km
Cloud details: Parcialmente nuboso 152 m
Muy nuboso 396 m
2021/01/25 14:39 LEGR 251439Z VRB02KT 4000 -RADZ SCT005 BKN013 13/13 Q1018
LEMG - Malaga (civ/Mil), Spain
Distance from station: OSO 227km
Actualización: Mon, 25-Jan-2021 3:30pm CET
Muy nuboso
Muy nuboso
 Viento del N
Viento: N 7 km/h
Temperatura: 20°C
Rocío: 13°C
Humedad: 64%
Barómetro: 1017 hPa
Clouds: Muy nuboso
Visibility: 10 km
Cloud details: Few Clouds 914 m
Muy nuboso 1524 m
2021/01/25 14:30 LEMG 251430Z 35004KT 320V040 9999 FEW030 BKN050 20/13 Q1017 NOSIG
 
LEZL - Sevilla (civ/Mil, Spain
Distance from station: S 318km
Actualización: Mon, 25-Jan-2021 3:30pm CET
Parcialmente nuboso
Parcialmente nuboso
 Viento del O
Viento: O 28 km/h
Temperatura: 19°C
Rocío: 14°C
Humedad: 73%
Barómetro: 1018 hPa
Clouds: Parcialmente nuboso
Visibility: 10 km
Cloud details: Parcialmente nuboso 732 m
2021/01/25 14:30 LEZL 251430Z 28015KT 9999 SCT024 19/14 Q1018 NOSIG
LEVT - Vitoria, Spain
Distance from station: NO 226km
Actualización: Mon, 25-Jan-2021 3:30pm CET
Muy nuboso
Muy nuboso
 Viento del ONO
Viento: ONO 11 km/h
Temperatura: 8°C
Sensación frio: 6°C
Rocío: 7°C
Humedad: 93%
Barómetro: 1012 hPa
Clouds: Muy nuboso
Visibility: 10 km
Cloud details: Parcialmente nuboso 396 m
Muy nuboso 914 m
2021/01/25 14:30 LEVT 251430Z 30006KT 9999 SCT013 BKN030 08/07 Q1012
 
LEBB - Bilbao/Sondica, Spain
Distance from station: NNO 235km
Actualización: Mon, 25-Jan-2021 3:30pm CET
Lluvia débil, Muy nuboso
Lluvia débil, Muy nuboso
 Viento del O
Viento: O 6 km/h
Temperatura: 10°C
Rocío: 9°C
Humedad: 94%
Barómetro: 1013 hPa
Resumen: Lluvia débil
Clouds: Muy nuboso
Visibility: 3 km
Cloud details: Few Clouds 274 m
Parcialmente nuboso 457 m
Muy nuboso 762 m
2021/01/25 14:30 LEBB 251430Z 28003KT 220V320 3000 -RA FEW009 SCT015 BKN025 10/09 Q1013 NOSIG
LESO - San Sebastian/Fu, Spain
Distance from station: N 231km
Actualización: Mon, 25-Jan-2021 3:46pm CET
Muy nuboso
Muy nuboso
 Viento del calm
Viento: Calma
Temperatura: 9°C
Rocío: 8°C
Humedad: 94%
Barómetro: 1013 hPa
Clouds: Muy nuboso
Visibility: 7 km
Cloud details: Parcialmente nuboso 152 m
Muy nuboso 823 m
2021/01/25 14:46 LESO 251446Z 00000KT 7000 SCT005 BKN027 09/08 Q1013
 
LEVD - Valladolid(Mil/C, Spain
Distance from station: ONO 239km
Actualización: Mon, 25-Jan-2021 3:39pm CET
Lluvia, Cubierto
Lluvia, Cubierto
 Viento del O
Viento: O 28 km/h
Temperatura: 11°C
Rocío: 10°C
Humedad: 94%
Barómetro: 1011 hPa
Resumen: Lluvia
Clouds: Cubierto
Visibility: 4 km
Cloud details: Muy nuboso 213 m
Cubierto 610 m
2021/01/25 14:39 LEVD 251439Z 28015KT 4000 RA BKN007 OVC020 11/10 Q1011
LESA - Salamanca (civ/M, Spain
Distance from station: ONO 349km
Actualización: Mon, 25-Jan-2021 3:30pm CET
Muy nuboso
Muy nuboso
 Viento del O
Viento: O 30 km/h
Temperatura: 12°C
Rocío: 11°C
Humedad: 94%
Barómetro: 1012 hPa
Clouds: Muy nuboso
Visibility: 9 km
Cloud details: Parcialmente nuboso 213 m
Muy nuboso 427 m
Muy nuboso 1128 m
2021/01/25 14:30 LESA 251430Z 28016KT 9000 SCT007 BKN014 BKN037 12/11 Q1012 RERA
 
LEXJ - Santander/Paraya, Spain
Distance from station: NNO 247km
Actualización: Mon, 25-Jan-2021 3:30pm CET
Cubierto
Cubierto
 Viento del NE
Viento: NE 9 km/h
Temperatura: 10°C
Sensación frio: 9°C
Rocío: 10°C
Humedad: 100%
Barómetro: 1014 hPa
Clouds: Cubierto
Visibility: 9 km
Cloud details: Muy nuboso 396 m
Cubierto 549 m
2021/01/25 14:30 LEXJ 251430Z 04005KT 010V090 9000 BKN013 OVC018 10/10 Q1014
LEAS - Asturias/Aviles, Spain
Distance from station: NO 214km
Actualización: Mon, 25-Jan-2021 3:30pm CET
Muy nuboso
Muy nuboso
 Viento del ENE
Viento: ENE 9 km/h
Temperatura: 10°C
Sensación frio: 9°C
Rocío: 9°C
Humedad: 94%
Barómetro: 1013 hPa
Clouds: Muy nuboso
Visibility: 9 km
Cloud details: Few Clouds 91 m
Muy nuboso 366 m
Muy nuboso 610 m
2021/01/25 14:30 LEAS 251430Z 06005KT 010V110 9000 FEW003 BKN012 BKN020 10/09 Q1013 NOSIG
 
LECO - La Coruna/Alvedr, Spain
Distance from station: ONO 222km
Actualización: Mon, 25-Jan-2021 3:30pm CET
Muy nuboso
Muy nuboso
 Viento del varies
Viento: varies 2 km/h
Temperatura: 13°C
Rocío: 12°C
Humedad: 94%
Barómetro: 1012 hPa
Clouds: Muy nuboso
Visibility: 10 km
Cloud details: Few Clouds 183 m
Muy nuboso 427 m
2021/01/25 14:30 LECO 251430Z VRB01KT 9999 FEW006 BKN014 13/12 Q1012 BECMG SCT014
LEVX - Vigo/Peinador, Spain
Distance from station: O 214km
Actualización: Mon, 25-Jan-2021 3:30pm CET
Lluvia débil, Niebla, Cubierto
Lluvia débil, Niebla, Cubierto
 Viento del O
Viento: O 15 km/h
Temperatura: 13°C
Rocío: 13°C
Humedad: 100%
Barómetro: 1013 hPa
Resumen: Lluvia débil, Niebla
Clouds: Cubierto
Visibility: 0 km
Cloud details: Cubierto 61 m
2021/01/25 14:30 LEVX 251430Z 26008KT 220V300 0400 R19/1300D R01/0750N -RA FG OVC002 13/13 Q1013 RERA NOSIG